Time;durP1;ratioP1;P1;durP2;ratioP2;P2;SDS_P1;SDS_P2;PMS_P1;PMS_P2;Temp;Humidity;BMP_temperature;BMP_pressure;BME280_temperature;BME280_humidity;BME280_pressure;Samples;Min_cycle;Max_cycle;Signal;HPM_P1;HPM_P2
2021/05/14 00:00:25;;;;;;;28.13;18.05;;;;;;;;;;5009439;28;20510;-63
2021/05/14 00:02:51;;;;;;;30.20;17.77;;;;;;;;;;5011257;28;20026;-64
2021/05/14 00:05:17;;;;;;;30.63;19.45;;;;;;;;;;5009528;28;20028;-62
2021/05/14 00:07:43;;;;;;;29.38;18.88;;;;;;;;;;5011203;28;20097;-63
2021/05/14 00:10:10;;;;;;;31.30;19.63;;;;;;;;;;5010399;28;20562;-63
2021/05/14 00:12:36;;;;;;;27.17;17.73;;;;;;;;;;5010929;28;20018;-63
2021/05/14 00:15:03;;;;;;;29.75;19.60;;;;;;;;;;5010685;28;20022;-63
2021/05/14 00:17:29;;;;;;;29.27;18.63;;;;;;;;;;5009911;28;20025;-60
2021/05/14 00:19:55;;;;;;;27.75;17.90;;;;;;;;;;5011412;28;20460;-62
2021/05/14 00:22:21;;;;;;;28.30;18.92;;;;;;;;;;5011056;28;20034;-62
2021/05/14 00:24:47;;;;;;;28.38;17.67;;;;;;;;;;5010538;28;20018;-62
2021/05/14 00:27:14;;;;;;;28.38;17.80;;;;;;;;;;5012351;28;20215;-62
2021/05/14 00:29:40;;;;;;;26.27;17.35;;;;;;;;;;5011423;28;20025;-63
2021/05/14 00:32:06;;;;;;;26.30;17.52;;;;;;;;;;5010865;28;20064;-63
2021/05/14 00:34:32;;;;;;;29.23;18.75;;;;;;;;;;5011329;28;20036;-63
2021/05/14 00:36:58;;;;;;;25.33;16.45;;;;;;;;;;5011985;28;20109;-62
2021/05/14 00:39:24;;;;;;;25.48;16.30;;;;;;;;;;5011486;28;20524;-63
2021/05/14 00:41:50;;;;;;;24.67;16.05;;;;;;;;;;5010908;28;20064;-63
2021/05/14 00:44:29;;;;;;;24.00;15.55;;;;;;;;;;5012021;28;20028;-63
2021/05/14 00:46:56;;;;;;;24.98;14.57;;;;;;;;;;5011983;28;20050;-62
2021/05/14 00:49:22;;;;;;;26.17;15.20;;;;;;;;;;5011417;28;20030;-59
2021/05/14 00:51:49;;;;;;;25.90;15.13;;;;;;;;;;5010926;28;20033;-63
2021/05/14 00:54:18;;;;;;;23.42;14.00;;;;;;;;;;5010729;28;20537;-61
2021/05/14 00:56:44;;;;;;;23.83;14.80;;;;;;;;;;5010849;28;20040;-64
2021/05/14 00:59:10;;;;;;;24.52;13.77;;;;;;;;;;5011160;28;20026;-65
2021/05/14 01:01:37;;;;;;;22.75;13.75;;;;;;;;;;5012034;28;20484;-61
2021/05/14 01:04:03;;;;;;;27.80;13.63;;;;;;;;;;5012014;28;20497;-63
2021/05/14 01:06:29;;;;;;;23.80;14.10;;;;;;;;;;5011799;28;20385;-63
2021/05/14 01:08:55;;;;;;;24.80;13.45;;;;;;;;;;5010369;28;20022;-63
2021/05/14 01:11:21;;;;;;;21.75;12.52;;;;;;;;;;5010862;28;20033;-65
2021/05/14 01:13:47;;;;;;;22.23;12.18;;;;;;;;;;5011864;28;20038;-62
2021/05/14 01:16:13;;;;;;;25.30;13.07;;;;;;;;;;5011999;28;20029;-64
2021/05/14 01:18:39;;;;;;;22.35;11.82;;;;;;;;;;5011181;28;20064;-62
2021/05/14 01:21:05;;;;;;;21.08;11.73;;;;;;;;;;5011589;28;20038;-64
2021/05/14 01:23:31;;;;;;;22.48;11.90;;;;;;;;;;5011868;28;20038;-63
2021/05/14 01:25:57;;;;;;;21.80;12.02;;;;;;;;;;5011865;28;20075;-63
2021/05/14 01:28:23;;;;;;;22.70;12.43;;;;;;;;;;5010711;28;20030;-60
2021/05/14 01:30:49;;;;;;;21.63;11.60;;;;;;;;;;5009895;28;20458;-61
2021/05/14 01:33:15;;;;;;;22.95;11.52;;;;;;;;;;5010425;28;20056;-63
2021/05/14 01:35:41;;;;;;;26.30;11.48;;;;;;;;;;5010424;28;20022;-63
2021/05/14 01:38:08;;;;;;;22.13;11.32;;;;;;;;;;5014131;28;20022;-63
2021/05/14 01:40:35;;;;;;;21.27;11.13;;;;;;;;;;5013297;28;20117;-62
2021/05/14 01:43:01;;;;;;;20.58;10.30;;;;;;;;;;5015217;28;20399;-63
2021/05/14 01:45:27;;;;;;;22.80;10.07;;;;;;;;;;5013833;28;20144;-64
2021/05/14 01:47:53;;;;;;;21.75;10.70;;;;;;;;;;5013843;28;20026;-63
2021/05/14 01:50:19;;;;;;;18.83;10.02;;;;;;;;;;5012862;28;20056;-64
2021/05/14 01:52:45;;;;;;;19.40;10.18;;;;;;;;;;5013897;28;20049;-64
2021/05/14 01:55:12;;;;;;;20.40;9.95;;;;;;;;;;5015059;28;20025;-64
2021/05/14 01:57:38;;;;;;;22.73;10.82;;;;;;;;;;5013479;28;20478;-62
2021/05/14 02:00:05;;;;;;;19.20;9.75;;;;;;;;;;5014108;28;20022;-65
2021/05/14 02:02:31;;;;;;;20.27;10.93;;;;;;;;;;5014834;28;20038;-64
2021/05/14 02:04:57;;;;;;;19.67;10.27;;;;;;;;;;5013318;28;20079;-64
2021/05/14 02:07:23;;;;;;;19.65;9.68;;;;;;;;;;5013542;28;20018;-64
2021/05/14 02:09:51;;;;;;;22.60;10.60;;;;;;;;;;5014030;28;20117;-63
2021/05/14 02:12:17;;;;;;;22.60;9.75;;;;;;;;;;5013468;28;20029;-63
2021/05/14 02:14:43;;;;;;;20.17;10.85;;;;;;;;;;5014658;28;20030;-61
2021/05/14 02:17:09;;;;;;;20.45;10.15;;;;;;;;;;5014595;28;20160;-61
2021/05/14 02:19:35;;;;;;;20.38;10.27;;;;;;;;;;5012587;28;20112;-64
2021/05/14 02:22:01;;;;;;;21.50;11.75;;;;;;;;;;5014544;28;20036;-63
2021/05/14 02:24:28;;;;;;;23.38;10.05;;;;;;;;;;5013202;28;20433;-64
2021/05/14 02:26:54;;;;;;;20.38;10.00;;;;;;;;;;5014373;28;20044;-63
2021/05/14 02:29:20;;;;;;;22.73;10.68;;;;;;;;;;5012329;28;20022;-62
2021/05/14 02:31:46;;;;;;;20.83;10.95;;;;;;;;;;5013231;28;20029;-62
2021/05/14 02:34:12;;;;;;;21.48;10.40;;;;;;;;;;5014387;28;20026;-64
2021/05/14 02:36:37;;;;;;;21.75;11.35;;;;;;;;;;5013295;28;20025;-62
2021/05/14 02:39:05;;;;;;;19.95;10.70;;;;;;;;;;5013857;28;20497;-61
2021/05/14 02:41:31;;;;;;;21.70;10.80;;;;;;;;;;5014280;28;20483;-63
2021/05/14 02:43:57;;;;;;;21.88;10.90;;;;;;;;;;5014239;28;20083;-63
2021/05/14 02:46:23;;;;;;;23.63;13.10;;;;;;;;;;5014009;28;20481;-62
2021/05/14 02:48:49;;;;;;;22.60;11.55;;;;;;;;;;5013014;28;20053;-64
2021/05/14 02:51:15;;;;;;;22.45;12.10;;;;;;;;;;5013895;28;20037;-63
2021/05/14 02:53:41;;;;;;;23.92;12.65;;;;;;;;;;5014201;28;20037;-62
2021/05/14 02:56:07;;;;;;;26.52;12.38;;;;;;;;;;5012702;28;20018;-62
2021/05/14 02:58:33;;;;;;;23.30;13.18;;;;;;;;;;5014072;28;20026;-62
2021/05/14 03:00:59;;;;;;;25.17;12.52;;;;;;;;;;5013221;28;20029;-64
2021/05/14 03:03:25;;;;;;;23.17;12.50;;;;;;;;;;5013664;28;20363;-62
2021/05/14 03:05:51;;;;;;;24.73;13.05;;;;;;;;;;5013930;28;20033;-64
2021/05/14 03:08:17;;;;;;;25.65;13.15;;;;;;;;;;5013923;28;20433;-63
2021/05/14 03:10:43;;;;;;;25.63;13.27;;;;;;;;;;5013068;28;20022;-62
2021/05/14 03:13:09;;;;;;;24.20;13.65;;;;;;;;;;5013536;28;20381;-60
2021/05/14 03:15:35;;;;;;;24.48;14.13;;;;;;;;;;5012390;28;20115;-64
2021/05/14 03:18:01;;;;;;;28.45;13.85;;;;;;;;;;5013397;28;20033;-65
2021/05/14 03:20:27;;;;;;;25.25;13.80;;;;;;;;;;5011512;28;20069;-64
2021/05/14 03:22:53;;;;;;;25.02;13.05;;;;;;;;;;5012040;28;20030;-64
2021/05/14 03:25:19;;;;;;;27.77;14.63;;;;;;;;;;5013088;28;20099;-64
2021/05/14 03:27:45;;;;;;;28.70;15.25;;;;;;;;;;5013306;28;20022;-65
2021/05/14 03:30:12;;;;;;;27.30;14.30;;;;;;;;;;5012321;28;20489;-66
2021/05/14 03:32:38;;;;;;;26.27;14.93;;;;;;;;;;5012953;28;20100;-65
2021/05/14 03:35:04;;;;;;;25.60;13.15;;;;;;;;;;5013160;28;20037;-64
2021/05/14 03:37:30;;;;;;;28.70;16.15;;;;;;;;;;5013104;28;20026;-64
2021/05/14 03:40:02;;;;;;;29.25;15.88;;;;;;;;;;5010905;28;20030;-64
2021/05/14 03:42:28;;;;;;;32.22;17.08;;;;;;;;;;5012723;28;20021;-63
2021/05/14 03:44:55;;;;;;;28.63;14.68;;;;;;;;;;5012894;28;20132;-63
2021/05/14 03:47:25;;;;;;;27.67;14.13;;;;;;;;;;5013109;28;20422;-63
2021/05/14 03:49:51;;;;;;;28.25;15.32;;;;;;;;;;5012133;28;20026;-63
2021/05/14 03:52:17;;;;;;;28.95;15.73;;;;;;;;;;5012749;28;20109;-62
2021/05/14 03:54:43;;;;;;;29.90;15.63;;;;;;;;;;5012686;28;20026;-63
2021/05/14 03:57:10;;;;;;;28.10;15.23;;;;;;;;;;5012875;28;20091;-62
2021/05/14 03:59:38;;;;;;;27.92;16.73;;;;;;;;;;5011663;28;20021;-63
2021/05/14 04:02:04;;;;;;;27.17;16.25;;;;;;;;;;5013029;28;20026;-63
2021/05/14 04:04:30;;;;;;;31.42;16.23;;;;;;;;;;5012501;28;20030;-63
2021/05/14 04:06:56;;;;;;;29.13;17.08;;;;;;;;;;5011293;28;20023;-63
2021/05/14 04:09:29;;;;;;;28.65;17.13;;;;;;;;;;5011686;28;20022;-62
2021/05/14 04:14:27;;;;;;;30.05;16.52;;;;;;;;;;5012377;28;20025;-62
2021/05/14 04:14:41;;;;;;;30.65;17.00;;;;;;;;;;5011504;28;20033;-57
2021/05/14 04:17:08;;;;;;;30.35;17.23;;;;;;;;;;5012431;28;20033;-62
2021/05/14 04:19:34;;;;;;;27.85;15.10;;;;;;;;;;5010195;28;20506;-61
2021/05/14 04:22:02;;;;;;;29.40;17.45;;;;;;;;;;5012189;28;20022;-61
2021/05/14 04:24:28;;;;;;;29.27;17.13;;;;;;;;;;5011997;28;20517;-63
2021/05/14 04:26:55;;;;;;;34.33;17.75;;;;;;;;;;5012244;28;20026;-61
2021/05/14 04:29:21;;;;;;;29.75;16.50;;;;;;;;;;5011618;28;20018;-59
2021/05/14 04:31:47;;;;;;;29.30;16.60;;;;;;;;;;5012132;28;20026;-64
2021/05/14 04:34:14;;;;;;;31.85;17.20;;;;;;;;;;5012352;28;20038;-64
2021/05/14 04:36:41;;;;;;;35.15;18.58;;;;;;;;;;5012217;28;20029;-63
2021/05/14 04:39:08;;;;;;;32.92;18.80;;;;;;;;;;5010162;28;20057;-63
2021/05/14 04:41:34;;;;;;;30.33;16.48;;;;;;;;;;4994447;28;20030;-64
2021/05/14 04:44:01;;;;;;;29.77;16.58;;;;;;;;;;5012020;28;20080;-64
2021/05/14 04:46:27;;;;;;;29.83;17.55;;;;;;;;;;5012282;28;20080;-63
2021/05/14 04:48:53;;;;;;;31.15;18.33;;;;;;;;;;5011556;28;20514;-64
2021/05/14 04:51:20;;;;;;;32.75;18.70;;;;;;;;;;5012064;28;20129;-64
2021/05/14 04:53:46;;;;;;;31.08;17.63;;;;;;;;;;5011749;28;20401;-65
2021/05/14 04:56:14;;;;;;;30.63;17.98;;;;;;;;;;5012014;28;20026;-64
2021/05/14 04:58:41;;;;;;;33.53;19.38;;;;;;;;;;5010859;28;20121;-64
2021/05/14 05:01:07;;;;;;;32.03;18.27;;;;;;;;;;5011582;28;20032;-64
2021/05/14 05:03:33;;;;;;;33.35;18.85;;;;;;;;;;5011884;28;20060;-64
2021/05/14 05:05:59;;;;;;;31.33;18.33;;;;;;;;;;5010764;28;20026;-64
2021/05/14 05:08:25;;;;;;;30.05;17.98;;;;;;;;;;5011826;28;20109;-64
2021/05/14 05:10:51;;;;;;;29.90;18.33;;;;;;;;;;5011306;28;20113;-63
2021/05/14 05:13:17;;;;;;;29.63;17.00;;;;;;;;;;5014442;28;20076;-62
2021/05/14 05:15:43;;;;;;;28.88;17.80;;;;;;;;;;5015587;28;20033;-63
2021/05/14 05:18:09;;;;;;;30.63;18.83;;;;;;;;;;5015650;28;20028;-64
2021/05/14 05:20:35;;;;;;;31.90;19.17;;;;;;;;;;5013493;28;20042;-62
2021/05/14 05:23:01;;;;;;;31.20;18.15;;;;;;;;;;5014117;28;20042;-63
2021/05/14 05:25:29;;;;;;;32.70;18.98;;;;;;;;;;5013998;28;20029;-62
2021/05/14 05:27:55;;;;;;;32.50;18.15;;;;;;;;;;5015458;28;20049;-62
2021/05/14 05:30:22;;;;;;;31.95;19.77;;;;;;;;;;5014233;28;20018;-62
2021/05/14 05:32:48;;;;;;;32.17;18.75;;;;;;;;;;5014007;28;20021;-64
2021/05/14 05:35:14;;;;;;;32.28;17.95;;;;;;;;;;5014966;28;20061;-64
2021/05/14 05:37:40;;;;;;;32.55;19.83;;;;;;;;;;5014783;28;20072;-64
2021/05/14 05:40:06;;;;;;;35.25;21.00;;;;;;;;;;5014461;28;20034;-65
2021/05/14 05:42:32;;;;;;;34.75;20.15;;;;;;;;;;5015044;28;20112;-64
2021/05/14 05:44:58;;;;;;;31.67;20.08;;;;;;;;;;5014822;28;20080;-65
2021/05/14 05:47:24;;;;;;;34.90;20.55;;;;;;;;;;5013687;28;20033;-64
2021/05/14 05:49:50;;;;;;;33.72;18.45;;;;;;;;;;5013889;28;20029;-65
2021/05/14 05:52:16;;;;;;;36.28;20.38;;;;;;;;;;5015138;28;20590;-64
2021/05/14 05:54:42;;;;;;;32.72;20.20;;;;;;;;;;5015359;28;20057;-64
2021/05/14 05:57:08;;;;;;;33.78;19.85;;;;;;;;;;5014576;28;20030;-63
2021/05/14 05:59:35;;;;;;;30.40;19.45;;;;;;;;;;5012690;28;20030;-63
2021/05/14 06:02:02;;;;;;;35.03;21.77;;;;;;;;;;5014631;28;20033;-61
2021/05/14 06:04:28;;;;;;;33.85;20.90;;;;;;;;;;5014448;28;20088;-64
2021/05/14 06:06:54;;;;;;;40.90;22.70;;;;;;;;;;5014522;28;20025;-64
2021/05/14 06:09:20;;;;;;;35.30;21.70;;;;;;;;;;5013599;28;20487;-63
2021/05/14 06:11:46;;;;;;;34.58;21.02;;;;;;;;;;5013059;28;20113;-63
2021/05/14 06:14:12;;;;;;;34.63;20.17;;;;;;;;;;5014408;28;20030;-62
2021/05/14 06:16:38;;;;;;;37.28;22.35;;;;;;;;;;5014371;28;20035;-64
2021/05/14 06:21:43;;;;;;;39.40;23.08;;;;;;;;;;5013566;28;20038;-63
2021/05/14 06:24:09;;;;;;;39.25;22.73;;;;;;;;;;5014264;28;20103;-61
2021/05/14 06:26:35;;;;;;;38.10;22.63;;;;;;;;;;5014097;28;20029;-62
2021/05/14 06:29:01;;;;;;;35.97;21.35;;;;;;;;;;5013451;28;20390;-64
2021/05/14 06:31:27;;;;;;;37.78;23.05;;;;;;;;;;5013873;28;20053;-63
2021/05/14 06:33:53;;;;;;;33.97;20.48;;;;;;;;;;5014834;28;20018;-64
2021/05/14 06:36:19;;;;;;;36.25;21.88;;;;;;;;;;5014246;28;20025;-63
2021/05/14 06:38:45;;;;;;;36.63;24.08;;;;;;;;;;5033002;28;20068;-64
2021/05/14 06:41:11;;;;;;;37.33;23.35;;;;;;;;;;5026891;28;20496;-64
2021/05/14 06:43:37;;;;;;;37.20;24.10;;;;;;;;;;5013533;28;20029;-64
2021/05/14 06:46:03;;;;;;;38.00;24.63;;;;;;;;;;5013226;28;20029;-61
2021/05/14 06:48:29;;;;;;;36.58;21.92;;;;;;;;;;5013637;28;20386;-64
2021/05/14 06:50:55;;;;;;;38.30;23.85;;;;;;;;;;5028249;28;20076;-63
2021/05/14 06:53:21;;;;;;;38.65;23.92;;;;;;;;;;5031834;28;20017;-63
2021/05/14 06:55:48;;;;;;;38.60;23.08;;;;;;;;;;5033189;28;20032;-62
2021/05/14 06:58:14;;;;;;;41.45;25.35;;;;;;;;;;5033252;28;20030;-63
2021/05/14 07:00:40;;;;;;;40.40;24.20;;;;;;;;;;5032398;28;20036;-63
2021/05/14 07:03:06;;;;;;;34.85;22.55;;;;;;;;;;5033090;28;20473;-62
2021/05/14 07:05:32;;;;;;;37.28;23.55;;;;;;;;;;5033154;28;20071;-63
2021/05/14 07:07:58;;;;;;;37.60;23.52;;;;;;;;;;5016474;28;20091;-65
2021/05/14 07:10:24;;;;;;;39.97;24.83;;;;;;;;;;5011260;28;20402;-62
2021/05/14 07:12:51;;;;;;;38.80;25.38;;;;;;;;;;5011991;28;20018;-64
2021/05/14 07:15:17;;;;;;;41.38;26.02;;;;;;;;;;5013226;28;20037;-65
2021/05/14 07:17:43;;;;;;;38.70;24.23;;;;;;;;;;5012983;28;20021;-64
2021/05/14 07:20:12;;;;;;;38.00;22.80;;;;;;;;;;5037355;22;20016;-65
2021/05/14 07:22:40;;;;;;;37.60;25.58;;;;;;;;;;5093355;28;20447;-66
2021/05/14 07:25:06;;;;;;;39.75;25.08;;;;;;;;;;5093144;28;20107;-64
2021/05/14 07:27:32;;;;;;;39.22;26.88;;;;;;;;;;5075065;28;20393;-64
2021/05/14 07:29:58;;;;;;;36.53;23.60;;;;;;;;;;5092378;28;20026;-64
2021/05/14 07:32:25;;;;;;;38.03;25.17;;;;;;;;;;5093139;28;20016;-65
2021/05/14 07:34:55;;;;;;;35.58;22.77;;;;;;;;;;5092209;28;20051;-64
2021/05/14 07:37:21;;;;;;;33.97;22.02;;;;;;;;;;5092505;28;20031;-63
2021/05/14 07:39:47;;;;;;;35.67;22.55;;;;;;;;;;5091796;28;20024;-63
2021/05/14 07:42:13;;;;;;;37.42;22.02;;;;;;;;;;5092206;28;20085;-63
2021/05/14 07:44:39;;;;;;;35.53;22.92;;;;;;;;;;5093315;28;20028;-63
2021/05/14 07:47:05;;;;;;;37.42;24.27;;;;;;;;;;5092104;28;20024;-63
2021/05/14 07:49:32;;;;;;;35.13;23.00;;;;;;;;;;5092621;28;20016;-64
2021/05/14 07:51:58;;;;;;;36.85;24.50;;;;;;;;;;5093323;28;20020;-63
2021/05/14 07:54:24;;;;;;;36.08;23.95;;;;;;;;;;5093264;28;20032;-63
2021/05/14 07:56:50;;;;;;;35.50;22.48;;;;;;;;;;5093260;28;20028;-63
2021/05/14 07:59:16;;;;;;;35.90;22.08;;;;;;;;;;5090965;28;20027;-64
2021/05/14 08:01:42;;;;;;;36.15;22.52;;;;;;;;;;5092862;28;20479;-63
2021/05/14 08:04:08;;;;;;;35.65;22.65;;;;;;;;;;5092639;28;20024;-63
2021/05/14 08:06:34;;;;;;;33.83;23.60;;;;;;;;;;5092075;28;20020;-64
2021/05/14 08:09:05;;;;;;;34.67;23.50;;;;;;;;;;5107678;28;20020;-63
2021/05/14 08:11:31;;;;;;;36.70;26.02;;;;;;;;;;5112239;28;20418;-64
2021/05/14 08:13:57;;;;;;;38.33;25.42;;;;;;;;;;5112094;28;20026;-63
2021/05/14 08:16:23;;;;;;;34.28;23.25;;;;;;;;;;5112333;28;20075;-65
2021/05/14 08:18:51;;;;;;;37.45;27.15;;;;;;;;;;5110916;28;20095;-65
2021/05/14 08:21:17;;;;;;;35.67;24.15;;;;;;;;;;5111690;28;20027;-65
2021/05/14 08:23:43;;;;;;;36.03;23.75;;;;;;;;;;5113029;28;20149;-65
2021/05/14 08:26:10;;;;;;;34.85;23.05;;;;;;;;;;5111549;28;20550;-64
2021/05/14 08:28:36;;;;;;;34.33;22.85;;;;;;;;;;5110995;28;20023;-64
2021/05/14 08:31:02;;;;;;;35.13;23.55;;;;;;;;;;5112745;28;20479;-65
2021/05/14 08:33:31;;;;;;;35.40;25.23;;;;;;;;;;5112589;28;20054;-66
2021/05/14 08:35:57;;;;;;;35.03;22.75;;;;;;;;;;5072355;28;20027;-63
2021/05/14 08:38:25;;;;;;;33.63;23.60;;;;;;;;;;5070821;28;20056;-64
2021/05/14 08:40:51;;;;;;;34.10;23.52;;;;;;;;;;5071661;28;20017;-64
2021/05/14 08:43:17;;;;;;;33.28;21.02;;;;;;;;;;5071537;28;20136;-64
2021/05/14 08:45:43;;;;;;;31.70;21.58;;;;;;;;;;5072883;28;20128;-65
2021/05/14 08:48:13;;;;;;;32.08;22.13;;;;;;;;;;5076689;28;20503;-65
2021/05/14 08:50:39;;;;;;;30.90;20.67;;;;;;;;;;5074863;28;20240;-65
2021/05/14 08:53:06;;;;;;;30.83;21.08;;;;;;;;;;5075304;28;20090;-65
2021/05/14 08:55:32;;;;;;;29.52;18.95;;;;;;;;;;5076435;28;20396;-64
2021/05/14 08:57:58;;;;;;;34.00;21.95;;;;;;;;;;5076462;28;20489;-65
2021/05/14 09:00:24;;;;;;;32.47;21.20;;;;;;;;;;5075891;28;20029;-64
2021/05/14 09:02:51;;;;;;;29.08;19.67;;;;;;;;;;5075090;28;20032;-65
2021/05/14 09:05:28;;;;;;;28.85;20.00;;;;;;;;;;5076030;28;20075;-65
2021/05/14 09:07:58;;;;;;;32.50;21.75;;;;;;;;;;5075167;28;20481;-65
2021/05/14 09:10:25;;;;;;;31.73;21.88;;;;;;;;;;5075537;28;20025;-65
2021/05/14 09:12:52;;;;;;;31.30;21.88;;;;;;;;;;5076123;28;20024;-65
2021/05/14 09:15:22;;;;;;;31.25;20.10;;;;;;;;;;5076548;28;20105;-65
2021/05/14 09:18:07;;;;;;;29.27;19.33;;;;;;;;;;5076678;28;20028;-66
2021/05/14 09:20:39;;;;;;;29.55;19.55;;;;;;;;;;5075573;28;20044;-66
2021/05/14 09:23:17;;;;;;;27.85;18.30;;;;;;;;;;5074825;28;20055;-65
2021/05/14 09:25:53;;;;;;;27.05;17.20;;;;;;;;;;5103601;28;20036;-66
2021/05/14 09:28:38;;;;;;;27.85;19.48;;;;;;;;;;5102477;28;20027;-66
2021/05/14 09:31:15;;;;;;;28.65;18.60;;;;;;;;;;5101169;28;20024;-65
2021/05/14 09:33:51;;;;;;;27.92;17.60;;;;;;;;;;5094430;28;20101;-66
2021/05/14 09:36:21;;;;;;;26.65;17.85;;;;;;;;;;5094892;28;20020;-65
2021/05/14 09:38:49;;;;;;;29.08;19.02;;;;;;;;;;5094932;28;20051;-64
2021/05/14 09:41:27;;;;;;;27.05;18.40;;;;;;;;;;5095647;28;20485;-65
2021/05/14 09:43:54;;;;;;;26.83;16.60;;;;;;;;;;5094191;28;20024;-65
2021/05/14 09:46:26;;;;;;;24.90;15.38;;;;;;;;;;5095886;28;20031;-66
2021/05/14 09:48:57;;;;;;;26.13;17.45;;;;;;;;;;5093320;28;20072;-65
2021/05/14 09:51:23;;;;;;;27.13;17.48;;;;;;;;;;5093573;28;20054;-64
2021/05/14 09:53:49;;;;;;;26.98;16.33;;;;;;;;;;5093918;28;20032;-61
2021/05/14 09:56:33;;;;;;;28.83;17.80;;;;;;;;;;5093426;28;20035;-62
2021/05/14 09:59:02;;;;;;;25.10;16.50;;;;;;;;;;5094064;28;20031;-61
2021/05/14 10:01:29;;;;;;;26.48;16.30;;;;;;;;;;5095067;28;20046;-63
2021/05/14 10:03:56;;;;;;;24.58;16.08;;;;;;;;;;5093427;28;20020;-61
2021/05/14 10:06:23;;;;;;;25.63;16.83;;;;;;;;;;5095303;28;20016;-63
2021/05/14 10:08:51;;;;;;;25.85;15.70;;;;;;;;;;5093933;28;20020;-60
2021/05/14 10:11:25;;;;;;;24.60;15.93;;;;;;;;;;5094394;28;20052;-62
2021/05/14 10:13:52;;;;;;;25.10;15.90;;;;;;;;;;5093394;28;20028;-62
2021/05/14 10:16:18;;;;;;;29.15;18.55;;;;;;;;;;5093366;28;20020;-59
2021/05/14 10:18:47;;;;;;;24.98;16.33;;;;;;;;;;5092638;28;20024;-60
2021/05/14 10:21:13;;;;;;;26.45;17.15;;;;;;;;;;5092866;28;20024;-60
2021/05/14 10:23:39;;;;;;;27.63;15.77;;;;;;;;;;5092773;28;20446;-57
2021/05/14 10:26:06;;;;;;;25.52;16.23;;;;;;;;;;5094647;28;20028;-59
2021/05/14 10:28:37;;;;;;;26.02;16.65;;;;;;;;;;5093175;28;20182;-60
2021/05/14 10:31:08;;;;;;;25.40;16.05;;;;;;;;;;5093258;28;20027;-63
2021/05/14 10:33:40;;;;;;;24.85;16.23;;;;;;;;;;5094153;28;20020;-63
2021/05/14 10:36:10;;;;;;;24.85;15.68;;;;;;;;;;5094318;28;20023;-61
2021/05/14 10:38:36;;;;;;;26.42;16.75;;;;;;;;;;5094584;28;20016;-64
2021/05/14 10:41:22;;;;;;;24.02;16.08;;;;;;;;;;5093657;28;20024;-61
2021/05/14 10:43:58;;;;;;;25.67;17.33;;;;;;;;;;5095119;28;20024;-63
2021/05/14 10:46:27;;;;;;;26.65;17.73;;;;;;;;;;5094390;28;20019;-58
2021/05/14 10:49:03;;;;;;;24.75;16.25;;;;;;;;;;5094149;28;20078;-63
2021/05/14 10:51:48;;;;;;;24.23;16.23;;;;;;;;;;5092496;28;20051;-63
2021/05/14 10:54:33;;;;;;;24.10;15.57;;;;;;;;;;5092188;28;20020;-61
2021/05/14 10:56:59;;;;;;;26.25;17.25;;;;;;;;;;5093729;28;20468;-60
2021/05/14 10:59:33;;;;;;;25.15;16.70;;;;;;;;;;5092931;28;20085;-61
2021/05/14 11:01:59;;;;;;;26.83;17.38;;;;;;;;;;5093664;28;20024;-61
2021/05/14 11:04:25;;;;;;;26.52;17.60;;;;;;;;;;5093227;28;20082;-62
2021/05/14 11:06:53;;;;;;;25.67;16.70;;;;;;;;;;5093308;28;20047;-61
2021/05/14 11:09:22;;;;;;;26.48;16.02;;;;;;;;;;5090802;28;20016;-60
2021/05/14 11:12:01;;;;;;;26.30;16.48;;;;;;;;;;5092747;28;20495;-58
2021/05/14 11:14:26;;;;;;;;;;;;;;;;;;5092784;28;20130;-60
2021/05/14 11:16:53;;;;;;;23.15;15.57;;;;;;;;;;4736465;28;9999786;-60
2021/05/14 11:19:21;;;;;;;23.10;15.05;;;;;;;;;;5083507;28;20027;-60
2021/05/14 11:22:08;;;;;;;24.10;15.88;;;;;;;;;;5088458;28;20232;-61
2021/05/14 11:24:34;;;;;;;24.17;15.15;;;;;;;;;;5087717;28;20046;-58
2021/05/14 11:27:01;;;;;;;23.27;15.15;;;;;;;;;;5079782;28;20516;-58
2021/05/14 11:29:31;;;;;;;24.20;15.50;;;;;;;;;;5076571;28;20024;-57
2021/05/14 11:32:09;;;;;;;24.02;15.75;;;;;;;;;;5078410;28;20016;-55
2021/05/14 11:34:35;;;;;;;;;;;;;;;;;;5078429;28;20373;-58
2021/05/14 11:37:01;;;;;;;22.88;16.63;;;;;;;;;;5078652;28;19935;-59
2021/05/14 11:39:27;;;;;;;23.23;15.77;;;;;;;;;;5071110;28;20067;-58
2021/05/14 11:41:59;;;;;;;24.15;16.33;;;;;;;;;;4723282;28;9999714;-58
2021/05/14 11:44:26;;;;;;;25.40;16.38;;;;;;;;;;5087796;28;20050;-56
2021/05/14 11:46:56;;;;;;;24.43;16.50;;;;;;;;;;5089817;28;20019;-59
2021/05/14 11:49:22;;;;;;;26.35;16.33;;;;;;;;;;5089044;28;20258;-61
2021/05/14 11:51:49;;;;;;;23.08;16.23;;;;;;;;;;5087772;28;20020;-60
2021/05/14 11:54:15;;;;;;;23.15;14.75;;;;;;;;;;5081658;28;20605;-58
2021/05/14 11:56:41;;;;;;;22.92;14.23;;;;;;;;;;5078786;28;20028;-56
2021/05/14 11:59:19;;;;;;;24.83;15.85;;;;;;;;;;5076078;28;20251;-60
2021/05/14 12:01:45;;;;;;;25.55;16.10;;;;;;;;;;5079433;28;20031;-58
2021/05/14 12:04:12;;;;;;;22.55;15.65;;;;;;;;;;5076282;28;20036;-58
2021/05/14 12:06:48;;;;;;;23.08;16.55;;;;;;;;;;5078408;28;20104;-59
2021/05/14 12:09:14;;;;;;;22.63;15.68;;;;;;;;;;5078791;28;20028;-61
2021/05/14 12:11:42;;;;;;;23.90;16.63;;;;;;;;;;5088173;28;20035;-60
2021/05/14 12:14:08;;;;;;;24.77;16.88;;;;;;;;;;5099513;28;20595;-56
2021/05/14 12:16:37;;;;;;;24.35;15.43;;;;;;;;;;5098008;28;20035;-58
2021/05/14 12:19:04;;;;;;;24.00;15.93;;;;;;;;;;5097884;28;20039;-60
2021/05/14 12:21:34;;;;;;;24.02;15.25;;;;;;;;;;5099582;28;20054;-61
2021/05/14 12:24:11;;;;;;;22.95;15.07;;;;;;;;;;5109212;28;20506;-62
2021/05/14 12:26:38;;;;;;;22.05;14.38;;;;;;;;;;5109209;28;20187;-57
2021/05/14 12:29:06;;;;;;;20.60;12.93;;;;;;;;;;5108398;28;20463;-62
2021/05/14 12:31:32;;;;;;;21.38;12.80;;;;;;;;;;5108456;28;20030;-57
2021/05/14 12:34:11;;;;;;;20.10;12.88;;;;;;;;;;5104681;28;20469;-58
2021/05/14 12:36:41;;;;;;;21.60;12.98;;;;;;;;;;5068820;28;20093;-62
2021/05/14 12:39:17;;;;;;;21.92;13.73;;;;;;;;;;5068545;28;20493;-60
2021/05/14 12:41:52;;;;;;;21.90;13.07;;;;;;;;;;5067708;28;20028;-63
2021/05/14 12:44:20;;;;;;;21.77;13.23;;;;;;;;;;5069522;28;20100;-62
2021/05/14 12:47:04;;;;;;;20.52;13.73;;;;;;;;;;5070103;28;20025;-60
2021/05/14 12:49:32;;;;;;;20.65;13.50;;;;;;;;;;5069126;28;20034;-60
2021/05/14 12:52:05;;;;;;;20.27;14.90;;;;;;;;;;5068588;28;20112;-62
2021/05/14 12:54:32;;;;;;;23.83;15.45;;;;;;;;;;5070197;28;20090;-60
2021/05/14 12:56:59;;;;;;;21.90;14.90;;;;;;;;;;5070302;28;20434;-56
2021/05/14 12:59:25;;;;;;;21.17;16.10;;;;;;;;;;5070356;28;20116;-63
2021/05/14 13:01:51;;;;;;;22.00;16.77;;;;;;;;;;5071227;28;20024;-63
2021/05/14 13:04:18;;;;;;;21.88;17.83;;;;;;;;;;5070941;28;20025;-58
2021/05/14 13:06:45;;;;;;;21.35;16.98;;;;;;;;;;5071134;28;20150;-61
2021/05/14 13:09:12;;;;;;;23.45;18.58;;;;;;;;;;5070959;28;20082;-61
2021/05/14 13:11:40;;;;;;;24.05;19.88;;;;;;;;;;5070160;28;20024;-61
2021/05/14 13:14:07;;;;;;;24.48;19.88;;;;;;;;;;5071073;28;20101;-57
2021/05/14 13:16:34;;;;;;;24.45;19.02;;;;;;;;;;5070057;28;20032;-56
2021/05/14 13:19:00;;;;;;;23.60;18.38;;;;;;;;;;5070354;28;20044;-60
2021/05/14 13:21:27;;;;;;;23.58;19.85;;;;;;;;;;5073273;23;20048;-62
2021/05/14 13:23:53;;;;;;;23.10;19.30;;;;;;;;;;5030890;28;20029;-61
2021/05/14 13:26:19;;;;;;;23.13;19.58;;;;;;;;;;5029748;28;20048;-61
2021/05/14 13:28:46;;;;;;;23.17;19.42;;;;;;;;;;5029000;28;20029;-61
2021/05/14 13:31:13;;;;;;;23.00;19.55;;;;;;;;;;5031006;28;20021;-60
2021/05/14 13:33:40;;;;;;;23.05;19.58;;;;;;;;;;5034287;28;20095;-62
2021/05/14 13:36:07;;;;;;;22.95;18.23;;;;;;;;;;5034579;28;20026;-61
2021/05/14 13:38:33;;;;;;;22.45;18.20;;;;;;;;;;5034186;28;20021;-59
2021/05/14 13:41:00;;;;;;;20.73;17.60;;;;;;;;;;5032113;28;20039;-60
2021/05/14 13:43:26;;;;;;;23.15;17.45;;;;;;;;;;5034579;28;20025;-59
2021/05/14 13:45:52;;;;;;;21.15;17.35;;;;;;;;;;5034795;28;20035;-60
2021/05/14 13:48:18;;;;;;;22.00;16.85;;;;;;;;;;5033917;28;20383;-59
2021/05/14 13:50:44;;;;;;;21.92;16.58;;;;;;;;;;5032375;28;20032;-59
2021/05/14 13:53:11;;;;;;;21.77;16.92;;;;;;;;;;5034707;28;20115;-56
2021/05/14 13:55:37;;;;;;;21.92;16.55;;;;;;;;;;5034549;28;20056;-57
2021/05/14 13:58:03;;;;;;;22.45;17.23;;;;;;;;;;5034518;28;20048;-56
2021/05/14 14:00:29;;;;;;;23.52;16.70;;;;;;;;;;5032254;28;20029;-57
2021/05/14 14:02:55;;;;;;;22.35;16.92;;;;;;;;;;5033092;28;20033;-57
2021/05/14 14:05:21;;;;;;;21.75;16.17;;;;;;;;;;5034265;28;20028;-57
2021/05/14 14:07:47;;;;;;;21.05;16.55;;;;;;;;;;5034187;28;20481;-57
2021/05/14 14:10:13;;;;;;;21.10;16.95;;;;;;;;;;5031931;28;20025;-57
2021/05/14 14:12:39;;;;;;;21.25;16.48;;;;;;;;;;5032378;28;20438;-57
2021/05/14 14:15:06;;;;;;;20.88;15.52;;;;;;;;;;5034230;28;20025;-58
2021/05/14 14:17:32;;;;;;;19.58;15.45;;;;;;;;;;5032839;28;20044;-58
2021/05/14 14:19:58;;;;;;;21.10;16.80;;;;;;;;;;5033623;28;20032;-58
2021/05/14 14:22:24;;;;;;;21.23;16.42;;;;;;;;;;5033039;28;20034;-60